SBPL/PNZ METAR and TAF weather

Enter ICAO airport designator
Station Type Date Time Source
SBPL METAR 2019/10/15 09:00 UTC NOAA

SBPL 150900Z 11010KT 9999 BKN020 BKN070 23/17 Q1016


Station Type Date Time Source
SBPL Decoded METAR 2019/10/15 09:00 UTC NOAA

Petrolina , Brazil (SBPL) 09-21S 040-33W
Oct 15, 2019 - 05:00 AM EDT / 2019.10.15 0900 UTC
Wind: from the ESE (110 degrees) at 12 MPH (10 KT):0
Visibility: greater than 7 mile(s):0
Sky conditions: mostly cloudy
Temperature: 73 F (23 C)
Dew Point: 62 F (17 C)
Relative Humidity: 68%
Pressure (altimeter): 30.00 in. Hg (1016 hPa)
ob: SBPL 150900Z 11010KT 9999 BKN020 BKN070 23/17 Q1016
cycle: 9

Station Type Date Time Source
SBPL TAF 2019/10/15 06:28 UTC NOAA

TAF SBPL 150400Z 1506/1606 14010KT CAVOK TN21/1508Z TX35/1517Z
BECMG 1510/1512 15015KT 9999 FEW030
BECMG 1515/1517 16008KT
RMK PAY

Example: see airport list